Time;durP1;ratioP1;P1;durP2;ratioP2;P2;SDS_P1;SDS_P2;PMS_P1;PMS_P2;Temp;Humidity;BMP_temperature;BMP_pressure;BME280_temperature;BME280_humidity;BME280_pressure;Samples;Min_cycle;Max_cycle;Signal;HPM_P1;HPM_P2
2022/07/15 00:01:12;;;;;;;9.18;2.00;;;;;;;11.57;100.00;155430.38;4992885;28;20038;-79
2022/07/15 00:03:37;;;;;;;11.27;1.80;;;;;;;11.58;100.00;155434.19;5011276;28;20034;-79
2022/07/15 00:06:03;;;;;;;10.65;1.70;;;;;;;11.52;100.00;155417.53;4995998;28;20165;-81
2022/07/15 00:08:29;;;;;;;16.52;1.92;;;;;;;11.63;100.00;155447.03;4989555;28;20037;-80
2022/07/15 00:10:55;;;;;;;7.15;1.63;;;;;;;11.71;100.00;155465.00;5019356;28;20038;-79
2022/07/15 00:13:23;;;;;;;8.73;1.75;;;;;;;11.81;100.00;155490.66;5014075;28;20036;-80
2022/07/15 00:15:49;;;;;;;13.80;2.20;;;;;;;11.75;100.00;155476.53;5008436;28;20418;-79
2022/07/15 00:18:14;;;;;;;10.93;2.30;;;;;;;11.80;100.00;155488.13;5012098;28;20033;-79
2022/07/15 00:20:40;;;;;;;7.38;1.63;;;;;;;11.81;100.00;155490.66;4986281;28;20064;-80
2022/07/15 00:23:07;;;;;;;9.27;1.90;;;;;;;12.00;100.00;155539.53;4999610;28;20105;-80
2022/07/15 00:25:33;;;;;;;14.90;2.25;;;;;;;11.98;100.00;155533.09;5003518;28;20604;-80
2022/07/15 00:28:01;;;;;;;9.70;1.85;;;;;;;12.17;100.00;155581.91;5011305;28;20029;-79
2022/07/15 00:30:35;;;;;;;11.75;1.88;;;;;;;12.24;100.00;155599.91;4983622;28;20045;-79
2022/07/15 00:33:01;;;;;;;7.00;1.40;;;;;;;12.33;100.00;155620.44;4988522;28;20038;-80
2022/07/15 00:35:29;;;;;;;6.95;1.73;;;;;;;12.43;100.00;155647.44;4995125;28;20060;-80
2022/07/15 00:37:54;;;;;;;8.60;1.70;;;;;;;12.38;100.00;155634.56;4981970;28;20038;-80
2022/07/15 00:40:20;;;;;;;12.80;2.30;;;;;;;12.38;100.00;155633.28;5015265;28;20053;-80
2022/07/15 00:42:46;;;;;;;8.90;1.85;;;;;;;12.52;100.00;155669.25;5030517;28;20041;-79
2022/07/15 00:45:18;;;;;;;10.05;2.15;;;;;;;12.60;100.00;155689.81;4981410;28;20056;-82
2022/07/15 00:47:47;;;;;;;16.92;2.25;;;;;;;12.61;100.00;155692.34;5026614;28;20080;-79
2022/07/15 00:50:14;;;;;;;11.35;1.98;;;;;;;12.69;100.00;155711.63;5010940;28;20034;-79
2022/07/15 00:52:44;;;;;;;7.68;1.55;;;;;;;12.56;100.00;155679.50;5001118;28;20038;-81
2022/07/15 00:55:12;;;;;;;7.18;1.50;;;;;;;12.56;100.00;155678.22;5026759;28;20037;-81
2022/07/15 00:57:41;;;;;;;10.77;1.80;;;;;;;12.56;100.00;155679.50;5004364;28;20543;-81
2022/07/15 01:00:10;;;;;;;12.70;1.75;;;;;;;12.45;100.00;155651.25;5002675;28;20237;-81
2022/07/15 01:02:37;;;;;;;9.48;1.73;;;;;;;12.45;100.00;155652.56;5002026;28;20129;-80
2022/07/15 01:05:05;;;;;;;8.07;1.70;;;;;;;12.36;100.00;155628.16;4995689;28;20069;-79
2022/07/15 01:07:32;;;;;;;12.52;1.60;;;;;;;12.22;100.00;155594.78;4999877;28;20030;-82
2022/07/15 01:09:58;;;;;;;9.63;1.88;;;;;;;12.15;100.00;155575.47;4988822;28;20046;-81
2022/07/15 01:12:25;;;;;;;5.80;1.45;;;;;;;12.04;100.00;155548.53;5033485;28;20044;-80
2022/07/15 01:14:51;;;;;;;8.85;1.60;;;;;;;11.98;100.00;155534.41;5012293;28;20034;-80
2022/07/15 01:17:17;;;;;;;8.63;1.73;;;;;;;11.90;100.00;155512.56;5007602;28;20520;-81
2022/07/15 01:19:43;;;;;;;7.93;1.38;;;;;;;11.90;100.00;155512.56;4998005;28;20037;-82
2022/07/15 01:22:09;;;;;;;7.75;1.40;;;;;;;11.87;100.00;155506.13;5007620;28;20644;-80
2022/07/15 01:24:35;;;;;;;9.32;1.48;;;;;;;11.93;100.00;155520.28;4995574;28;20049;-80
2022/07/15 01:27:16;;;;;;;9.10;1.50;;;;;;;11.93;100.00;155521.56;5013329;28;20688;-81
2022/07/15 01:29:42;;;;;;;7.57;1.70;;;;;;;12.08;100.00;155560.06;4997251;28;20100;-81
2022/07/15 01:32:08;;;;;;;4.70;1.17;;;;;;;12.05;100.00;155551.06;4997046;28;20095;-82
2022/07/15 01:34:33;;;;;;;8.00;1.63;;;;;;;12.03;100.00;155545.94;5006590;28;20049;-80
2022/07/15 01:36:59;;;;;;;7.50;1.80;;;;;;;12.09;100.00;155561.34;4992045;28;20048;-82
2022/07/15 01:39:25;;;;;;;9.65;1.40;;;;;;;12.16;100.00;155578.06;4980760;28;20440;-81
2022/07/15 01:41:51;;;;;;;8.82;1.45;;;;;;;12.13;100.00;155570.34;4990591;28;20026;-80
2022/07/15 01:44:18;;;;;;;11.70;1.60;;;;;;;12.15;100.00;155575.47;4991325;28;20034;-82
2022/07/15 01:46:45;;;;;;;7.28;1.17;;;;;;;12.17;100.00;155581.91;5009259;28;20036;-80
2022/07/15 01:49:24;;;;;;;9.85;1.60;;;;;;;12.11;100.00;155565.22;4986216;28;20040;-81
2022/07/15 01:52:15;;;;;;;7.00;1.50;;;;;;;12.00;100.00;155539.53;5002724;28;20060;-80
2022/07/15 01:54:44;;;;;;;7.95;1.20;;;;;;;11.95;100.00;155526.69;4976660;28;20045;-80
2022/07/15 01:57:09;;;;;;;9.98;1.50;;;;;;;11.85;100.00;155502.25;5011824;28;20022;-81
2022/07/15 01:59:47;;;;;;;7.22;1.27;;;;;;;11.71;100.00;155466.28;4999863;28;20037;-82
2022/07/15 02:02:17;;;;;;;7.47;1.50;;;;;;;11.72;100.00;155467.59;4999623;28;20056;-81
2022/07/15 02:04:43;;;;;;;5.90;1.52;;;;;;;11.74;100.00;155474.00;5000504;28;20073;-81
2022/07/15 02:07:08;;;;;;;6.22;1.00;;;;;;;11.83;100.00;155495.84;5001328;28;20045;-82
2022/07/15 02:09:35;;;;;;;6.43;1.30;;;;;;;11.91;100.00;155515.16;4995558;28;20041;-81
2022/07/15 02:12:01;;;;;;;10.50;1.50;;;;;;;12.01;100.00;155542.09;4994380;28;20034;-81
2022/07/15 02:14:34;;;;;;;6.95;1.60;;;;;;;11.93;100.00;155520.28;4991085;28;20038;-79
2022/07/15 02:17:02;;;;;;;8.13;1.52;;;;;;;11.92;100.00;155517.69;4977506;28;20034;-81
2022/07/15 02:19:32;;;;;;;8.95;1.83;;;;;;;11.79;100.00;155485.53;5010518;28;20049;-80
2022/07/15 02:21:59;;;;;;;8.48;1.40;;;;;;;11.94;100.00;155524.16;5002492;28;20680;-80
2022/07/15 02:24:24;;;;;;;9.48;1.40;;;;;;;12.03;100.00;155545.94;5016875;28;20100;-80
2022/07/15 02:26:50;;;;;;;12.45;2.05;;;;;;;12.20;100.00;155589.59;5009360;28;20037;-81
2022/07/15 02:29:16;;;;;;;5.95;1.27;;;;;;;12.22;100.00;155593.47;5032772;28;20065;-80
2022/07/15 02:31:42;;;;;;;8.98;1.10;;;;;;;12.17;100.00;155581.91;4996715;28;20033;-81
2022/07/15 02:34:08;;;;;;;6.18;1.00;;;;;;;12.25;100.00;155602.44;5004427;28;20095;-82
2022/07/15 02:36:38;;;;;;;6.05;1.30;;;;;;;12.29;100.00;155611.44;4994784;28;20041;-82
2022/07/15 02:39:03;;;;;;;5.63;1.10;;;;;;;12.35;100.00;155625.56;5015354;28;20030;-82
2022/07/15 02:41:32;;;;;;;10.18;1.33;;;;;;;12.30;100.00;155612.72;5008281;28;20038;-81
2022/07/15 02:44:02;;;;;;;5.57;1.30;;;;;;;12.39;100.00;155635.84;5000663;28;20132;-82
2022/07/15 02:46:28;;;;;;;11.43;1.40;;;;;;;12.38;100.00;155634.56;4999508;28;20071;-81
2022/07/15 02:48:54;;;;;;;3.80;1.02;;;;;;;12.42;100.00;155644.84;4983197;28;20056;-82
2022/07/15 02:51:20;;;;;;;6.40;1.00;;;;;;;12.36;100.00;155629.44;5018554;28;20100;-82
2022/07/15 02:53:46;;;;;;;4.22;0.90;;;;;;;12.29;100.00;155610.19;4985588;28;20105;-81
2022/07/15 02:56:16;;;;;;;5.93;1.88;;;;;;;12.19;100.00;155585.78;5010536;28;20034;-81
2022/07/15 02:58:42;;;;;;;8.65;1.40;;;;;;;12.13;100.00;155570.34;4998057;28;20030;-81
2022/07/15 03:01:09;;;;;;;7.30;1.27;;;;;;;12.10;100.00;155563.94;5007668;28;20045;-82
2022/07/15 03:03:36;;;;;;;9.27;1.30;;;;;;;12.02;100.00;155544.69;5000047;28;20038;-82
2022/07/15 03:06:04;;;;;;;8.30;1.48;;;;;;;12.02;100.00;155544.69;4992577;28;20426;-83
2022/07/15 03:08:29;;;;;;;9.88;1.50;;;;;;;11.96;100.00;155527.97;5006146;28;20025;-81
2022/07/15 03:10:56;;;;;;;9.60;1.60;;;;;;;11.95;100.00;155526.69;5002508;28;20042;-82
2022/07/15 03:13:22;;;;;;;8.60;1.60;;;;;;;11.82;100.00;155493.25;4990343;28;20041;-81
2022/07/15 03:15:48;;;;;;;7.18;1.05;;;;;;;11.83;100.00;155495.84;5012041;28;20121;-79
2022/07/15 03:18:14;;;;;;;9.15;1.67;;;;;;;11.67;100.00;155456.03;4994075;28;20200;-82
2022/07/15 03:20:40;;;;;;;6.65;1.65;;;;;;;11.63;100.00;155445.75;4979284;28;20535;-81
2022/07/15 03:23:06;;;;;;;8.23;1.30;;;;;;;11.65;100.00;155452.16;5008621;28;20065;-81
2022/07/15 03:25:32;;;;;;;5.05;0.95;;;;;;;11.57;100.00;155431.63;5006510;28;20046;-81
2022/07/15 03:28:04;;;;;;;5.20;1.10;;;;;;;11.53;100.00;155420.06;5001741;28;20034;-81
2022/07/15 03:30:33;;;;;;;8.48;1.40;;;;;;;11.47;100.00;155407.25;5005079;28;20042;-82
2022/07/15 03:32:59;;;;;;;7.85;1.20;;;;;;;11.54;100.00;155422.66;5001465;28;20124;-82
2022/07/15 03:35:25;;;;;;;9.05;1.30;;;;;;;11.60;100.00;155439.34;5006291;28;20073;-82
2022/07/15 03:37:51;;;;;;;5.30;1.50;;;;;;;11.65;100.00;155452.16;5012564;28;20401;-81
2022/07/15 03:40:17;;;;;;;5.50;1.02;;;;;;;11.69;100.00;155461.16;5025487;28;20180;-83
2022/07/15 03:42:43;;;;;;;5.68;1.00;;;;;;;11.71;100.00;155466.28;5006584;28;20048;-82
2022/07/15 03:45:09;;;;;;;7.65;0.88;;;;;;;11.74;100.00;155474.00;5006802;28;20042;-82
2022/07/15 03:47:34;;;;;;;7.65;1.02;;;;;;;11.79;100.00;155486.84;4994008;28;20208;-82
2022/07/15 03:50:05;;;;;;;7.30;1.10;;;;;;;11.82;100.00;155493.25;5026631;28;20091;-81
2022/07/15 03:52:33;;;;;;;9.52;1.27;;;;;;;11.87;100.00;155507.38;5026730;28;20145;-82
2022/07/15 03:54:59;;;;;;;7.50;1.05;;;;;;;11.92;100.00;155517.69;5007984;28;20121;-82
2022/07/15 03:57:26;;;;;;;8.15;1.20;;;;;;;12.06;100.00;155554.94;4989463;28;20110;-83
2022/07/15 03:59:52;;;;;;;7.95;1.20;;;;;;;12.20;100.00;155588.31;4985544;28;20042;-81
2022/07/15 04:02:19;;;;;;;5.82;1.40;;;;;;;12.10;100.00;155562.66;5000567;28;20044;-82
2022/07/15 04:04:44;;;;;;;4.43;1.33;;;;;;;12.10;100.00;155563.94;5011799;28;20485;-80
2022/07/15 04:07:10;;;;;;;7.00;1.52;;;;;;;12.11;100.00;155566.53;4986743;28;20046;-81
2022/07/15 04:09:36;;;;;;;6.80;1.20;;;;;;;12.15;100.00;155575.47;4990147;28;20038;-82
2022/07/15 04:12:01;;;;;;;4.60;1.20;;;;;;;12.08;100.00;155558.81;4994300;28;20076;-80
2022/07/15 04:14:28;;;;;;;6.18;1.17;;;;;;;12.26;100.00;155605.03;5004936;28;20624;-80
2022/07/15 04:16:54;;;;;;;7.82;1.30;;;;;;;12.31;100.00;155615.31;4989098;28;20108;-83
2022/07/15 04:19:33;;;;;;;5.63;1.40;;;;;;;12.35;100.00;155626.84;4992715;28;20478;-82
2022/07/15 04:22:01;;;;;;;7.65;1.20;;;;;;;12.46;100.00;155655.09;5003087;28;20054;-81
2022/07/15 04:24:31;;;;;;;6.05;0.98;;;;;;;12.47;100.00;155656.44;4993979;28;20041;-82
2022/07/15 04:26:57;;;;;;;8.45;1.33;;;;;;;12.53;100.00;155670.56;5005395;28;20132;-80
2022/07/15 04:29:22;;;;;;;6.65;1.00;;;;;;;12.55;100.00;155676.97;5007007;28;20490;-81
2022/07/15 04:31:48;;;;;;;5.35;1.10;;;;;;;12.58;100.00;155684.69;4988196;28;20066;-81
2022/07/15 04:34:20;;;;;;;5.97;1.23;;;;;;;12.68;100.00;155707.75;4995212;28;20046;-80
2022/07/15 04:36:47;;;;;;;6.25;1.10;;;;;;;12.68;100.00;155709.09;5012478;28;20603;-82
2022/07/15 04:39:12;;;;;;;5.13;1.23;;;;;;;12.74;100.00;155723.22;5000944;28;20027;-82
2022/07/15 04:41:38;;;;;;;10.13;1.40;;;;;;;12.74;100.00;155723.22;5009525;28;20034;-82
2022/07/15 04:44:04;;;;;;;7.10;1.30;;;;;;;12.72;100.00;155718.09;4980101;28;20045;-80
2022/07/15 04:46:31;;;;;;;7.57;1.38;;;;;;;12.78;100.00;155734.75;4998583;28;20038;-80
2022/07/15 04:52:00;;;;;;;5.80;1.05;;;;;;;12.80;100.00;155738.63;4998786;28;20125;-81
2022/07/15 04:54:26;;;;;;;7.97;1.40;;;;;;;12.83;100.00;155746.34;5006893;28;20113;-82
2022/07/15 04:56:52;;;;;;;6.30;1.15;;;;;;;12.84;100.00;155748.88;5002355;28;20068;-82
2022/07/15 04:59:17;;;;;;;6.15;1.00;;;;;;;12.84;100.00;155750.16;4982876;28;20035;-81
2022/07/15 05:01:43;;;;;;;8.30;1.45;;;;;;;12.81;100.00;155742.47;5006482;28;20045;-82
2022/07/15 05:04:11;;;;;;;8.50;1.25;;;;;;;12.83;100.00;155746.34;4982967;28;20030;-82
2022/07/15 05:06:37;;;;;;;6.47;1.00;;;;;;;12.83;100.00;155746.34;4986908;28;20133;-82
2022/07/15 05:09:03;;;;;;;7.22;1.23;;;;;;;12.94;100.00;155773.28;5007280;28;20034;-80
2022/07/15 05:11:32;;;;;;;10.63;1.30;;;;;;;12.90;100.00;155763.03;4991761;28;20042;-82
2022/07/15 05:13:58;;;;;;;5.43;1.30;;;;;;;12.97;100.00;155781.00;4987514;28;20052;-82
2022/07/15 05:16:23;;;;;;;6.22;0.90;;;;;;;13.00;100.00;155790.00;5008612;28;20049;-81
2022/07/15 05:18:49;;;;;;;8.20;1.00;;;;;;;13.08;100.00;155808.00;5011701;28;20034;-81
2022/07/15 05:21:17;;;;;;;9.50;1.40;;;;;;;13.14;100.00;155823.41;4976733;28;20080;-81
2022/07/15 05:23:42;;;;;;;6.88;1.10;;;;;;;13.17;100.00;155832.41;4979763;28;20124;-81
2022/07/15 05:26:08;;;;;;;9.43;1.15;;;;;;;13.27;100.00;155855.56;4984080;28;20042;-81
2022/07/15 05:28:38;;;;;;;8.05;1.33;;;;;;;13.33;100.00;155871.00;5016808;28;20412;-82
2022/07/15 05:31:05;;;;;;;6.35;0.90;;;;;;;13.42;100.00;155894.16;5025407;28;20042;-82
2022/07/15 05:33:31;;;;;;;6.15;1.05;;;;;;;13.44;100.00;155899.28;5009133;28;20034;-83
2022/07/15 05:35:57;;;;;;;6.22;1.13;;;;;;;13.40;100.00;155889.00;5004884;28;20041;-81
2022/07/15 05:38:28;;;;;;;6.38;1.02;;;;;;;13.33;100.00;155872.28;5002794;28;20040;-82
2022/07/15 05:40:54;;;;;;;8.52;1.42;;;;;;;13.32;100.00;155869.75;4999166;28;20113;-80
2022/07/15 05:43:20;;;;;;;10.35;1.25;;;;;;;13.34;100.00;155873.59;4995174;28;20034;-81
2022/07/15 05:45:46;;;;;;;5.10;0.95;;;;;;;13.18;100.00;155833.69;5035675;28;20033;-82
2022/07/15 05:48:12;;;;;;;6.95;1.13;;;;;;;13.12;100.00;155819.56;5030994;28;20033;-82
2022/07/15 05:50:47;;;;;;;6.47;0.90;;;;;;;13.13;100.00;155822.16;5014099;28;20034;-82
2022/07/15 05:53:14;;;;;;;5.28;0.93;;;;;;;13.13;100.00;155820.81;5015388;28;20053;-84
2022/07/15 05:55:39;;;;;;;5.68;1.40;;;;;;;13.10;100.00;155814.41;5027083;28;20045;-82
2022/07/15 05:58:07;;;;;;;8.45;1.30;;;;;;;13.12;100.00;155819.56;4997512;28;20058;-82
2022/07/15 06:00:34;;;;;;;11.85;1.50;;;;;;;13.01;100.00;155791.28;5008379;28;20371;-82
2022/07/15 06:03:01;;;;;;;10.18;1.55;;;;;;;13.06;100.00;155804.16;4980374;28;20515;-81
2022/07/15 06:05:29;;;;;;;9.02;1.30;;;;;;;13.10;100.00;155814.41;4991734;28;20030;-82
2022/07/15 06:07:58;;;;;;;8.73;1.30;;;;;;;13.18;100.00;155834.97;4997750;28;20088;-82
2022/07/15 06:10:30;;;;;;;9.05;1.50;;;;;;;13.37;100.00;155881.28;5028305;28;20042;-82
2022/07/15 06:12:56;;;;;;;7.43;1.55;;;;;;;13.59;100.00;155936.56;5013981;28;20088;-82
2022/07/15 06:15:23;;;;;;;12.60;1.30;;;;;;;13.81;100.00;155993.13;5004864;28;20452;-81
2022/07/15 06:17:49;;;;;;;7.45;1.23;;;;;;;14.04;100.00;156049.69;5006083;28;20033;-83
2022/07/15 06:20:16;;;;;;;9.63;1.23;;;;;;;14.13;100.00;156072.84;4992540;28;20038;-81
2022/07/15 06:22:42;;;;;;;8.25;1.10;;;;;;;14.34;100.00;156125.56;4987671;28;20034;-82
2022/07/15 06:25:08;;;;;;;7.40;1.42;;;;;;;14.39;100.00;156138.41;5000064;28;20629;-80
2022/07/15 06:27:34;;;;;;;6.28;1.17;;;;;;;14.32;100.00;156120.41;4996270;28;20104;-82
2022/07/15 06:30:00;;;;;;;9.15;0.90;;;;;;;14.45;100.00;156151.25;5026718;28;20242;-82
2022/07/15 06:32:26;;;;;;;8.00;1.48;;;;;;;14.51;100.00;156166.72;5014785;28;20030;-82
2022/07/15 06:34:51;;;;;;;8.68;1.00;;;;;;;14.57;100.00;156183.47;4978317;28;20038;-82
2022/07/15 06:37:17;;;;;;;8.93;1.08;;;;;;;14.64;100.00;156198.94;5002767;28;20034;-81
2022/07/15 06:39:43;;;;;;;10.45;1.40;;;;;;;14.64;100.00;156198.94;5014875;28;20133;-82
2022/07/15 06:42:10;;;;;;;8.18;1.33;;;;;;;14.67;100.00;156207.88;4983313;28;20034;-81
2022/07/15 06:44:35;;;;;;;3.75;0.77;;;;;;;14.78;100.00;156234.91;4998365;28;20030;-80
2022/07/15 06:47:06;;;;;;;14.80;1.83;;;;;;;14.98;100.00;156285.09;5021283;28;20045;-81
2022/07/15 06:49:35;;;;;;;4.45;1.00;;;;;;;15.12;100.00;156321.09;5010847;28;20030;-82
2022/07/15 06:52:01;;;;;;;4.28;1.15;;;;;;;15.13;100.00;156323.69;5001820;28;20042;-81
2022/07/15 06:54:27;;;;;;;6.38;1.30;;;;;;;15.09;100.00;156312.13;4984756;28;20640;-82
2022/07/15 06:56:53;;;;;;;9.25;1.08;;;;;;;15.00;100.00;156290.25;4989413;28;20038;-82
2022/07/15 06:59:19;;;;;;;7.32;1.10;;;;;;;14.83;100.00;156246.50;4970863;28;20038;-81
2022/07/15 07:01:45;;;;;;;8.13;1.45;;;;;;;14.61;100.00;156192.47;5011446;28;20057;-81
2022/07/15 07:04:11;;;;;;;9.30;1.42;;;;;;;14.40;100.00;156139.69;5008250;28;20060;-82
2022/07/15 07:06:36;;;;;;;6.97;0.98;;;;;;;14.37;100.00;156131.97;4990726;28;20383;-82
2022/07/15 07:09:03;;;;;;;5.25;1.20;;;;;;;14.40;100.00;156139.69;5012491;28;20034;-83
2022/07/15 07:11:29;;;;;;;7.78;1.27;;;;;;;14.43;100.00;156147.44;5001251;28;20132;-83
2022/07/15 07:13:54;;;;;;;8.20;1.10;;;;;;;14.42;100.00;156144.84;5003099;28;20421;-80
2022/07/15 07:16:20;;;;;;;4.07;1.10;;;;;;;14.27;99.83;156107.53;5019544;28;20088;-83
2022/07/15 07:18:47;;;;;;;6.70;1.20;;;;;;;14.31;100.00;156117.81;5012114;28;20034;-81
2022/07/15 07:21:14;;;;;;;11.02;1.30;;;;;;;14.24;100.00;156098.53;5008817;28;20070;-80
2022/07/15 07:23:39;;;;;;;6.95;1.05;;;;;;;14.39;100.00;156137.09;4994650;28;20041;-79
2022/07/15 07:26:07;;;;;;;13.18;1.75;;;;;;;14.58;100.00;156184.78;4984164;28;20044;-78
2022/07/15 07:28:33;;;;;;;9.23;1.15;;;;;;;14.50;100.00;156165.41;5005413;28;20026;-78
2022/07/15 07:31:00;;;;;;;9.25;1.55;;;;;;;14.55;100.00;156177.00;5007252;28;20043;-77
2022/07/15 07:33:25;;;;;;;6.00;1.42;;;;;;;14.48;100.00;156158.97;5019097;28;20029;-79
2022/07/15 07:35:52;;;;;;;8.50;1.15;;;;;;;14.45;96.66;156151.25;5000205;28;20764;-79
2022/07/15 07:38:19;;;;;;;11.93;1.42;;;;;;;14.37;96.98;156131.97;5001357;28;20116;-79
2022/07/15 07:40:47;;;;;;;11.27;1.50;;;;;;;14.34;100.00;156125.56;4993079;28;20053;-79
2022/07/15 07:43:18;;;;;;;8.73;1.42;;;;;;;14.27;100.00;156107.53;5003078;28;20033;-79
2022/07/15 07:45:45;;;;;;;7.45;1.42;;;;;;;14.01;100.00;156043.28;5026924;28;20509;-79
2022/07/15 07:48:11;;;;;;;5.95;1.10;;;;;;;14.00;100.00;156039.41;5015474;28;20100;-78
2022/07/15 07:50:38;;;;;;;9.48;1.38;;;;;;;14.06;100.00;156054.81;4995216;28;20045;-81
2022/07/15 07:53:04;;;;;;;6.10;1.17;;;;;;;14.33;100.00;156122.97;5000482;28;20125;-80
2022/07/15 07:55:29;;;;;;;8.65;1.20;;;;;;;14.58;100.00;156186.06;5003610;28;20305;-80
2022/07/15 07:57:57;;;;;;;9.10;1.40;;;;;;;14.82;100.00;156245.19;4995328;28;20034;-79
2022/07/15 08:00:26;;;;;;;8.07;1.20;;;;;;;15.11;100.00;156317.28;5021827;28;20233;-80
2022/07/15 08:02:53;;;;;;;9.10;1.45;;;;;;;15.18;100.00;156335.25;5022539;28;20485;-79
2022/07/15 08:05:19;;;;;;;10.70;1.80;;;;;;;15.18;100.00;156336.56;4992465;28;20057;-80
2022/07/15 08:07:45;;;;;;;10.90;1.67;;;;;;;15.18;100.00;156336.56;5008165;28;20478;-79
2022/07/15 08:10:13;;;;;;;11.80;1.52;;;;;;;15.07;100.00;156308.25;4989446;28;20038;-78
2022/07/15 08:12:39;;;;;;;8.88;1.30;;;;;;;14.90;100.00;156264.47;4976662;28;20069;-79
2022/07/15 08:15:12;;;;;;;6.80;1.20;;;;;;;14.82;100.00;156243.91;4984920;28;20042;-78
2022/07/15 08:17:39;;;;;;;5.93;1.27;;;;;;;14.76;100.00;156229.78;5017713;28;20045;-78
2022/07/15 08:20:07;;;;;;;8.25;1.80;;;;;;;14.71;100.00;156218.22;5014518;28;20042;-77
2022/07/15 08:22:33;;;;;;;8.43;1.25;;;;;;;14.62;100.00;156195.06;4994152;28;20030;-77
2022/07/15 08:24:59;;;;;;;8.88;1.40;;;;;;;14.84;100.00;156249.06;5015371;28;20069;-78
2022/07/15 08:27:25;;;;;;;9.30;1.35;;;;;;;14.76;100.00;156229.78;4991485;28;20493;-79
2022/07/15 08:29:51;;;;;;;9.38;1.40;;;;;;;14.85;100.00;156252.94;5009435;28;20524;-77
2022/07/15 08:32:17;;;;;;;4.75;0.90;;;;;;;14.81;100.00;156241.38;5011960;28;20038;-79
2022/07/15 08:34:43;;;;;;;3.25;0.93;;;;;;;14.86;100.00;156255.53;4992118;28;21898;-77
2022/07/15 08:37:09;;;;;;;8.45;1.58;;;;;;;15.03;100.00;156297.97;4974407;28;20056;-79
2022/07/15 08:39:36;;;;;;;9.23;1.38;;;;;;;15.20;100.00;156340.44;5005647;28;20040;-77
2022/07/15 08:42:03;;;;;;;8.52;1.08;;;;;;;15.37;99.49;156382.88;5011440;28;20092;-78
2022/07/15 08:44:29;;;;;;;4.03;1.05;;;;;;;15.54;100.00;156425.34;5026930;28;20041;-79
2022/07/15 08:47:00;;;;;;;5.50;1.00;;;;;;;15.76;100.00;156482.03;5023230;28;20494;-77
2022/07/15 08:49:29;;;;;;;6.70;0.80;;;;;;;15.74;100.00;156476.84;5006839;28;20042;-78
2022/07/15 08:51:58;;;;;;;3.95;0.80;;;;;;;15.72;98.90;156471.63;5000807;28;20038;-79
2022/07/15 08:54:24;;;;;;;5.53;0.90;;;;;;;16.17;100.00;156582.41;4992741;28;20026;-77
2022/07/15 08:56:50;;;;;;;4.72;1.00;;;;;;;16.53;95.02;156673.81;4990954;28;20034;-78
2022/07/15 08:59:17;;;;;;;7.80;1.30;;;;;;;16.81;92.39;156743.34;5004134;28;20044;-78
2022/07/15 09:01:45;;;;;;;10.20;1.75;;;;;;;16.90;91.30;156767.88;4993130;28;20045;-77
2022/07/15 09:04:11;;;;;;;11.20;1.45;;;;;;;17.18;84.83;156836.09;5000009;28;20081;-79
2022/07/15 09:06:39;;;;;;;6.32;1.17;;;;;;;17.68;87.32;156962.38;5014316;28;20467;-78
2022/07/15 09:09:25;;;;;;;3.33;0.77;;;;;;;17.96;81.26;157032.00;5002525;28;20048;-77
2022/07/15 09:11:56;;;;;;;3.05;0.70;;;;;;;18.21;79.74;157095.13;5002774;28;20053;-77
2022/07/15 09:14:21;;;;;;;3.13;0.90;;;;;;;18.63;77.87;157200.88;5008572;28;20046;-78
2022/07/15 09:16:47;;;;;;;3.78;0.57;;;;;;;18.26;77.99;157109.31;4997920;28;20386;-80
2022/07/15 09:19:13;;;;;;;6.10;0.80;;;;;;;17.58;78.43;156937.91;4993188;28;20034;-79
2022/07/15 09:21:44;;;;;;;8.20;1.00;;;;;;;17.06;82.98;156807.78;4980754;28;20036;-78
2022/07/15 09:24:18;;;;;;;3.65;0.68;;;;;;;16.87;83.08;156760.13;4999366;28;20037;-77
2022/07/15 09:26:44;;;;;;;9.30;0.80;;;;;;;16.85;83.04;156753.69;5014287;28;20030;-78
2022/07/15 09:36:01;;;;;;;5.40;0.80;;;;;;;16.55;86.06;156678.94;5007941;28;20060;-79
2022/07/15 09:37:56;;;;;;;4.45;0.70;;;;;;;16.85;81.03;156753.69;5008656;28;20040;-78
2022/07/15 09:40:22;;;;;;;1.63;0.50;;;;;;;17.17;82.84;156834.84;4991451;28;20042;-79
2022/07/15 09:43:06;;;;;;;4.85;1.00;;;;;;;17.25;84.26;156855.47;4981237;28;20044;-78
2022/07/15 09:45:36;;;;;;;3.42;0.52;;;;;;;16.96;83.96;156782.03;5023331;28;20034;-77
2022/07/15 09:48:09;;;;;;;5.28;0.85;;;;;;;16.92;83.41;156773.00;4998191;28;20027;-79
2022/07/15 09:50:36;;;;;;;2.58;0.85;;;;;;;16.84;85.82;156752.44;5012110;28;20025;-80
2022/07/15 09:53:04;;;;;;;2.38;0.65;;;;;;;16.93;84.24;156774.28;5005470;28;20054;-78
2022/07/15 09:55:30;;;;;;;6.55;0.98;;;;;;;16.77;84.34;156733.06;5029296;28;20397;-78
2022/07/15 09:57:59;;;;;;;4.00;0.70;;;;;;;17.14;84.06;156827.13;5014358;28;20029;-79
2022/07/15 10:00:24;;;;;;;4.13;0.63;;;;;;;17.54;78.76;156926.28;5016136;28;20033;-78
2022/07/15 10:02:51;;;;;;;3.88;0.90;;;;;;;18.04;78.38;157052.63;5016631;28;20397;-78
2022/07/15 10:05:16;;;;;;;5.40;0.60;;;;;;;18.49;74.66;157167.31;5015472;28;20492;-79
2022/07/15 10:07:44;;;;;;;4.18;0.57;;;;;;;18.96;70.96;157284.69;4975992;28;20030;-78
2022/07/15 10:10:10;;;;;;;2.88;0.70;;;;;;;19.37;71.62;157387.84;5012283;28;20034;-80
2022/07/15 10:12:51;;;;;;;7.53;0.63;;;;;;;18.94;68.89;157278.25;4984979;28;20509;-78
2022/07/15 10:15:38;;;;;;;4.38;0.63;;;;;;;18.30;72.17;157118.34;5029747;28;20029;-79
2022/07/15 10:18:19;;;;;;;2.55;0.60;;;;;;;18.02;74.42;157048.75;4991461;28;20603;-80
2022/07/15 10:20:57;;;;;;;7.43;0.70;;;;;;;17.89;77.87;157016.56;4993731;28;20169;-78
2022/07/15 10:23:38;;;;;;;3.38;0.70;;;;;;;18.06;72.23;157059.09;5029064;28;20618;-79
2022/07/15 10:26:38;;;;;;;2.85;0.57;;;;;;;18.64;71.58;157204.69;5006049;28;20041;-79
2022/07/15 10:29:06;;;;;;;3.15;0.65;;;;;;;19.04;67.95;157304.03;5012542;28;20030;-77
2022/07/15 10:31:37;;;;;;;2.35;0.47;;;;;;;19.47;63.98;157411.06;5010658;28;20042;-76
2022/07/15 10:34:02;;;;;;;2.65;0.70;;;;;;;19.62;64.65;157449.75;5007962;28;20030;-76
2022/07/15 10:36:41;;;;;;;4.78;1.08;;;;;;;19.43;65.32;157403.31;5002506;28;20100;-76
2022/07/15 10:39:08;;;;;;;5.78;0.95;;;;;;;19.49;69.44;157416.22;5004999;28;20042;-78
2022/07/15 10:42:03;;;;;;;4.35;0.68;;;;;;;19.74;64.98;157480.78;4997434;28;20057;-79
2022/07/15 10:44:32;;;;;;;2.88;0.57;;;;;;;20.12;62.29;157576.25;5011350;28;20644;-79
2022/07/15 10:47:13;;;;;;;2.35;0.50;;;;;;;20.15;60.37;157583.94;4993126;28;20033;-79
2022/07/15 10:49:46;;;;;;;2.92;0.60;;;;;;;19.73;60.86;157476.91;5012632;28;20046;-78
2022/07/15 10:52:16;;;;;;;3.30;0.50;;;;;;;19.26;59.82;157359.47;5012782;28;20030;-78
2022/07/15 10:54:44;;;;;;;4.10;0.30;;;;;;;18.96;63.77;157284.69;5000248;28;20038;-77
2022/07/15 10:57:12;;;;;;;3.88;0.50;;;;;;;18.79;64.45;157240.81;5006854;28;20508;-77
2022/07/15 10:59:46;;;;;;;1.38;0.60;;;;;;;18.40;67.03;157142.81;4998331;28;20405;-78
2022/07/15 11:02:15;;;;;;;2.83;0.60;;;;;;;18.33;67.96;157124.78;5007445;28;20497;-78
2022/07/15 11:04:42;;;;;;;2.63;0.50;;;;;;;18.81;68.55;157246.00;5016950;28;20402;-79
2022/07/15 11:07:09;;;;;;;2.65;0.40;;;;;;;19.59;65.95;157442.00;5026568;28;20152;-79
2022/07/15 11:10:07;;;;;;;4.47;0.60;;;;;;;20.45;66.24;157657.50;5007596;28;20413;-80
2022/07/15 11:12:34;;;;;;;1.75;0.43;;;;;;;20.98;64.38;157791.75;5021480;28;20084;-78
2022/07/15 11:15:11;;;;;;;1.65;0.57;;;;;;;20.58;59.02;157691.06;4996066;28;20045;-77
2022/07/15 11:17:39;;;;;;;4.10;0.50;;;;;;;20.59;61.38;157694.94;4993777;28;20041;-77
2022/07/15 11:20:21;;;;;;;2.10;0.32;;;;;;;20.65;63.76;157707.91;4991859;28;20581;-79
2022/07/15 11:22:52;;;;;;;0.73;0.30;;;;;;;20.70;61.72;157722.09;5003670;28;20041;-80
2022/07/15 11:25:24;;;;;;;4.07;0.43;;;;;;;20.49;59.25;157669.09;5012522;28;20265;-80
2022/07/15 11:28:00;;;;;;;2.85;0.80;;;;;;;20.40;62.76;157645.94;4995384;28;20057;-78
2022/07/15 11:30:32;;;;;;;7.85;0.88;;;;;;;20.13;62.12;157578.78;5021592;28;20034;-78